sensor_id;sensor_type;location;lat;lon;timestamp;pressure;altitude;pressure_sealevel;temperature;humidity
61037;BME280;57313;47.040;15.498;2022-07-22T00:01:12;97075.13;;;20.99;100.00
61037;BME280;57313;47.040;15.498;2022-07-22T00:03:39;97067.84;;;20.93;100.00
61037;BME280;57313;47.040;15.498;2022-07-22T00:06:07;97061.84;;;20.83;100.00
61037;BME280;57313;47.040;15.498;2022-07-22T00:08:37;97059.88;;;20.76;100.00
61037;BME280;57313;47.040;15.498;2022-07-22T00:11:05;97064.50;;;20.74;100.00
61037;BME280;57313;47.040;15.498;2022-07-22T00:13:32;97069.59;;;20.68;100.00
61037;BME280;57313;47.040;15.498;2022-07-22T00:16:00;97062.97;;;20.63;100.00
61037;BME280;57313;47.040;15.498;2022-07-22T00:18:27;97076.69;;;20.59;100.00
61037;BME280;57313;47.040;15.498;2022-07-22T00:20:55;97071.34;;;20.51;100.00
61037;BME280;57313;47.040;15.498;2022-07-22T00:23:22;97077.91;;;20.38;100.00
61037;BME280;57313;47.040;15.498;2022-07-22T00:25:50;97079.91;;;20.36;100.00
61037;BME280;57313;47.040;15.498;2022-07-22T00:28:18;97076.59;;;20.34;100.00
61037;BME280;57313;47.040;15.498;2022-07-22T00:30:45;97071.78;;;20.30;100.00
61037;BME280;57313;47.040;15.498;2022-07-22T00:33:13;97078.22;;;20.27;100.00
61037;BME280;57313;47.040;15.498;2022-07-22T00:35:40;97075.22;;;20.22;100.00
61037;BME280;57313;47.040;15.498;2022-07-22T00:38:09;97076.19;;;20.13;100.00
61037;BME280;57313;47.040;15.498;2022-07-22T00:40:37;97079.97;;;20.10;100.00
61037;BME280;57313;47.040;15.498;2022-07-22T00:43:06;97069.88;;;20.05;100.00
61037;BME280;57313;47.040;15.498;2022-07-22T00:45:34;97079.13;;;20.01;100.00
61037;BME280;57313;47.040;15.498;2022-07-22T00:48:03;97070.16;;;19.94;100.00
61037;BME280;57313;47.040;15.498;2022-07-22T00:50:32;97071.75;;;19.87;100.00
61037;BME280;57313;47.040;15.498;2022-07-22T00:53:00;97072.78;;;19.86;100.00
61037;BME280;57313;47.040;15.498;2022-07-22T00:55:28;97072.44;;;19.89;100.00
61037;BME280;57313;47.040;15.498;2022-07-22T00:57:56;97072.06;;;19.84;100.00
61037;BME280;57313;47.040;15.498;2022-07-22T01:00:25;97071.72;;;19.79;100.00
61037;BME280;57313;47.040;15.498;2022-07-22T01:02:53;97071.06;;;19.77;100.00
61037;BME280;57313;47.040;15.498;2022-07-22T01:05:21;97076.09;;;19.70;100.00
61037;BME280;57313;47.040;15.498;2022-07-22T01:07:48;97076.41;;;19.67;100.00
61037;BME280;57313;47.040;15.498;2022-07-22T01:10:16;97075.91;;;19.63;100.00
61037;BME280;57313;47.040;15.498;2022-07-22T01:12:44;97072.75;;;19.60;100.00
61037;BME280;57313;47.040;15.498;2022-07-22T01:15:12;97095.00;;;19.57;100.00
61037;BME280;57313;47.040;15.498;2022-07-22T01:17:41;97082.41;;;19.51;100.00
61037;BME280;57313;47.040;15.498;2022-07-22T01:20:11;97083.19;;;19.43;100.00
61037;BME280;57313;47.040;15.498;2022-07-22T01:22:39;97085.47;;;19.38;100.00
61037;BME280;57313;47.040;15.498;2022-07-22T01:25:07;97083.13;;;19.35;100.00
61037;BME280;57313;47.040;15.498;2022-07-22T01:27:35;97080.00;;;19.31;100.00
61037;BME280;57313;47.040;15.498;2022-07-22T01:30:03;97078.94;;;19.24;100.00
61037;BME280;57313;47.040;15.498;2022-07-22T01:32:31;97078.03;;;19.15;100.00
61037;BME280;57313;47.040;15.498;2022-07-22T01:34:58;97074.22;;;19.10;100.00
61037;BME280;57313;47.040;15.498;2022-07-22T01:37:28;97073.50;;;19.08;100.00
61037;BME280;57313;47.040;15.498;2022-07-22T01:39:56;97080.59;;;19.07;100.00
61037;BME280;57313;47.040;15.498;2022-07-22T01:42:24;97078.28;;;19.04;100.00
61037;BME280;57313;47.040;15.498;2022-07-22T01:44:53;97090.09;;;19.00;100.00
61037;BME280;57313;47.040;15.498;2022-07-22T01:47:21;97084.31;;;18.96;100.00
61037;BME280;57313;47.040;15.498;2022-07-22T01:49:48;97096.28;;;18.91;100.00
61037;BME280;57313;47.040;15.498;2022-07-22T01:52:17;97099.91;;;18.90;100.00
61037;BME280;57313;47.040;15.498;2022-07-22T01:54:46;97096.03;;;18.84;100.00
61037;BME280;57313;47.040;15.498;2022-07-22T01:57:13;97086.78;;;18.80;100.00
61037;BME280;57313;47.040;15.498;2022-07-22T01:59:41;97085.56;;;18.74;100.00
61037;BME280;57313;47.040;15.498;2022-07-22T02:02:09;97086.00;;;18.70;100.00
61037;BME280;57313;47.040;15.498;2022-07-22T02:04:36;97088.66;;;18.70;100.00
61037;BME280;57313;47.040;15.498;2022-07-22T02:07:04;97086.44;;;18.65;100.00
61037;BME280;57313;47.040;15.498;2022-07-22T02:09:31;97090.63;;;18.68;100.00
61037;BME280;57313;47.040;15.498;2022-07-22T02:12:01;97095.88;;;18.68;100.00
61037;BME280;57313;47.040;15.498;2022-07-22T02:14:29;97084.78;;;18.64;100.00
61037;BME280;57313;47.040;15.498;2022-07-22T02:16:57;97092.69;;;18.64;100.00
61037;BME280;57313;47.040;15.498;2022-07-22T02:19:24;97096.78;;;18.58;100.00
61037;BME280;57313;47.040;15.498;2022-07-22T02:21:52;97090.44;;;18.51;100.00
61037;BME280;57313;47.040;15.498;2022-07-22T02:24:19;97095.84;;;18.50;100.00
61037;BME280;57313;47.040;15.498;2022-07-22T02:26:47;97098.09;;;18.44;100.00
61037;BME280;57313;47.040;15.498;2022-07-22T02:29:16;97089.94;;;18.38;100.00
61037;BME280;57313;47.040;15.498;2022-07-22T02:31:44;97096.34;;;18.35;100.00
61037;BME280;57313;47.040;15.498;2022-07-22T02:34:12;97096.66;;;18.32;100.00
61037;BME280;57313;47.040;15.498;2022-07-22T02:36:40;97100.84;;;18.25;100.00
61037;BME280;57313;47.040;15.498;2022-07-22T02:39:08;97104.34;;;18.16;100.00
61037;BME280;57313;47.040;15.498;2022-07-22T02:41:36;97106.44;;;18.12;100.00
61037;BME280;57313;47.040;15.498;2022-07-22T02:44:04;97112.81;;;18.09;100.00
61037;BME280;57313;47.040;15.498;2022-07-22T02:46:34;97110.72;;;18.13;100.00
61037;BME280;57313;47.040;15.498;2022-07-22T02:49:02;97109.63;;;18.16;100.00
61037;BME280;57313;47.040;15.498;2022-07-22T02:51:30;97106.75;;;18.09;100.00
61037;BME280;57313;47.040;15.498;2022-07-22T02:53:57;97103.41;;;18.07;100.00
61037;BME280;57313;47.040;15.498;2022-07-22T02:56:25;97105.06;;;18.08;100.00
61037;BME280;57313;47.040;15.498;2022-07-22T02:58:52;97094.81;;;18.05;100.00
61037;BME280;57313;47.040;15.498;2022-07-22T03:01:20;97099.69;;;18.00;100.00
61037;BME280;57313;47.040;15.498;2022-07-22T03:03:50;97106.94;;;17.98;100.00
61037;BME280;57313;47.040;15.498;2022-07-22T03:06:19;97110.81;;;17.93;100.00
61037;BME280;57313;47.040;15.498;2022-07-22T03:08:47;97105.97;;;17.89;100.00
61037;BME280;57313;47.040;15.498;2022-07-22T03:11:14;97112.59;;;17.83;100.00
61037;BME280;57313;47.040;15.498;2022-07-22T03:13:42;97109.44;;;17.80;100.00
61037;BME280;57313;47.040;15.498;2022-07-22T03:16:10;97113.19;;;17.77;100.00
61037;BME280;57313;47.040;15.498;2022-07-22T03:18:38;97118.19;;;17.70;100.00
61037;BME280;57313;47.040;15.498;2022-07-22T03:21:08;97122.66;;;17.70;100.00
61037;BME280;57313;47.040;15.498;2022-07-22T03:23:36;97123.47;;;17.70;100.00
61037;BME280;57313;47.040;15.498;2022-07-22T03:26:04;97124.72;;;17.66;100.00
61037;BME280;57313;47.040;15.498;2022-07-22T03:28:31;97126.38;;;17.67;100.00
61037;BME280;57313;47.040;15.498;2022-07-22T03:30:59;97135.94;;;17.68;100.00
61037;BME280;57313;47.040;15.498;2022-07-22T03:33:26;97136.66;;;17.61;100.00
61037;BME280;57313;47.040;15.498;2022-07-22T03:35:53;97138.59;;;17.58;100.00
61037;BME280;57313;47.040;15.498;2022-07-22T03:38:22;97126.84;;;17.53;100.00
61037;BME280;57313;47.040;15.498;2022-07-22T03:40:49;97138.19;;;17.53;100.00
61037;BME280;57313;47.040;15.498;2022-07-22T03:43:17;97142.34;;;17.56;100.00
61037;BME280;57313;47.040;15.498;2022-07-22T03:45:44;97133.47;;;17.57;100.00
61037;BME280;57313;47.040;15.498;2022-07-22T03:48:12;97138.44;;;17.60;100.00
61037;BME280;57313;47.040;15.498;2022-07-22T03:50:40;97140.25;;;17.59;100.00
61037;BME280;57313;47.040;15.498;2022-07-22T03:53:07;97151.88;;;17.57;100.00
61037;BME280;57313;47.040;15.498;2022-07-22T03:55:37;97147.47;;;17.57;100.00
61037;BME280;57313;47.040;15.498;2022-07-22T03:58:05;97154.53;;;17.57;100.00
61037;BME280;57313;47.040;15.498;2022-07-22T04:00:33;97149.53;;;17.54;100.00
61037;BME280;57313;47.040;15.498;2022-07-22T04:03:00;97155.94;;;17.51;100.00
61037;BME280;57313;47.040;15.498;2022-07-22T04:05:29;97155.22;;;17.49;100.00
61037;BME280;57313;47.040;15.498;2022-07-22T04:07:56;97154.66;;;17.55;100.00
61037;BME280;57313;47.040;15.498;2022-07-22T04:10:24;97164.78;;;17.60;100.00
61037;BME280;57313;47.040;15.498;2022-07-22T04:12:54;97160.22;;;17.62;100.00
61037;BME280;57313;47.040;15.498;2022-07-22T04:15:21;97163.94;;;17.59;100.00
61037;BME280;57313;47.040;15.498;2022-07-22T04:17:51;97157.59;;;17.62;100.00
61037;BME280;57313;47.040;15.498;2022-07-22T04:20:19;97162.72;;;17.64;100.00
61037;BME280;57313;47.040;15.498;2022-07-22T04:22:47;97168.94;;;17.63;100.00
61037;BME280;57313;47.040;15.498;2022-07-22T04:25:15;97161.72;;;17.65;100.00
61037;BME280;57313;47.040;15.498;2022-07-22T04:27:42;97159.38;;;17.62;100.00
61037;BME280;57313;47.040;15.498;2022-07-22T04:30:12;97173.94;;;17.66;100.00
61037;BME280;57313;47.040;15.498;2022-07-22T04:32:40;97177.38;;;17.66;100.00
61037;BME280;57313;47.040;15.498;2022-07-22T04:35:08;97180.59;;;17.70;100.00
61037;BME280;57313;47.040;15.498;2022-07-22T04:37:35;97178.88;;;17.79;100.00
61037;BME280;57313;47.040;15.498;2022-07-22T04:40:04;97181.09;;;17.83;100.00
61037;BME280;57313;47.040;15.498;2022-07-22T04:42:32;97181.41;;;17.90;100.00
61037;BME280;57313;47.040;15.498;2022-07-22T04:44:59;97177.34;;;17.96;100.00
61037;BME280;57313;47.040;15.498;2022-07-22T04:47:29;97175.00;;;18.02;100.00
61037;BME280;57313;47.040;15.498;2022-07-22T04:49:56;97175.94;;;18.11;100.00
61037;BME280;57313;47.040;15.498;2022-07-22T04:52:23;97176.19;;;18.18;100.00
61037;BME280;57313;47.040;15.498;2022-07-22T04:54:51;97174.63;;;18.25;100.00
61037;BME280;57313;47.040;15.498;2022-07-22T04:57:18;97172.09;;;18.33;100.00
61037;BME280;57313;47.040;15.498;2022-07-22T04:59:45;97165.44;;;18.39;100.00
61037;BME280;57313;47.040;15.498;2022-07-22T05:02:12;97170.50;;;18.50;100.00
61037;BME280;57313;47.040;15.498;2022-07-22T05:04:41;97164.50;;;18.58;100.00
61037;BME280;57313;47.040;15.498;2022-07-22T05:07:09;97182.06;;;18.67;100.00
61037;BME280;57313;47.040;15.498;2022-07-22T05:09:36;97182.34;;;18.74;100.00
61037;BME280;57313;47.040;15.498;2022-07-22T05:12:05;97177.97;;;18.82;100.00
61037;BME280;57313;47.040;15.498;2022-07-22T05:14:32;97179.06;;;18.90;100.00
61037;BME280;57313;47.040;15.498;2022-07-22T05:17:00;97189.56;;;18.99;100.00
61037;BME280;57313;47.040;15.498;2022-07-22T05:19:28;97188.97;;;19.06;100.00
61037;BME280;57313;47.040;15.498;2022-07-22T05:21:58;97195.16;;;19.14;100.00
61037;BME280;57313;47.040;15.498;2022-07-22T05:24:25;97187.47;;;19.21;100.00
61037;BME280;57313;47.040;15.498;2022-07-22T05:26:53;97188.53;;;19.28;100.00
61037;BME280;57313;47.040;15.498;2022-07-22T05:29:20;97181.66;;;19.35;100.00
61037;BME280;57313;47.040;15.498;2022-07-22T05:31:48;97182.56;;;19.44;100.00
61037;BME280;57313;47.040;15.498;2022-07-22T05:34:15;97186.94;;;19.53;100.00
61037;BME280;57313;47.040;15.498;2022-07-22T05:36:42;97179.06;;;19.62;100.00
61037;BME280;57313;47.040;15.498;2022-07-22T05:39:12;97186.75;;;19.73;100.00
61037;BME280;57313;47.040;15.498;2022-07-22T05:41:39;97177.25;;;19.80;100.00
61037;BME280;57313;47.040;15.498;2022-07-22T05:44:07;97185.09;;;19.90;100.00
61037;BME280;57313;47.040;15.498;2022-07-22T05:46:34;97183.84;;;20.02;100.00
61037;BME280;57313;47.040;15.498;2022-07-22T05:49:02;97187.22;;;20.13;100.00
61037;BME280;57313;47.040;15.498;2022-07-22T05:51:29;97174.88;;;20.21;100.00
61037;BME280;57313;47.040;15.498;2022-07-22T05:53:57;97190.63;;;20.31;100.00
61037;BME280;57313;47.040;15.498;2022-07-22T05:56:26;97187.88;;;20.41;100.00
61037;BME280;57313;47.040;15.498;2022-07-22T05:58:54;97183.75;;;20.47;100.00
61037;BME280;57313;47.040;15.498;2022-07-22T06:01:22;97189.75;;;20.57;100.00
61037;BME280;57313;47.040;15.498;2022-07-22T06:03:50;97181.88;;;20.65;100.00
61037;BME280;57313;47.040;15.498;2022-07-22T06:06:17;97188.19;;;20.72;100.00
61037;BME280;57313;47.040;15.498;2022-07-22T06:08:45;97183.91;;;20.79;100.00
61037;BME280;57313;47.040;15.498;2022-07-22T06:11:19;97189.22;;;20.88;100.00
61037;BME280;57313;47.040;15.498;2022-07-22T06:13:48;97192.56;;;20.98;100.00
61037;BME280;57313;47.040;15.498;2022-07-22T06:16:15;97183.00;;;21.05;100.00
61037;BME280;57313;47.040;15.498;2022-07-22T06:18:42;97195.25;;;21.14;100.00
61037;BME280;57313;47.040;15.498;2022-07-22T06:21:10;97194.28;;;21.24;100.00
61037;BME280;57313;47.040;15.498;2022-07-22T06:23:37;97202.75;;;21.36;100.00
61037;BME280;57313;47.040;15.498;2022-07-22T06:26:05;97197.59;;;21.42;100.00
61037;BME280;57313;47.040;15.498;2022-07-22T06:28:32;97195.66;;;21.52;100.00
61037;BME280;57313;47.040;15.498;2022-07-22T06:31:00;97195.66;;;21.61;100.00
61037;BME280;57313;47.040;15.498;2022-07-22T06:33:28;97191.03;;;21.71;100.00
61037;BME280;57313;47.040;15.498;2022-07-22T06:35:56;97197.81;;;21.82;100.00
61037;BME280;57313;47.040;15.498;2022-07-22T06:38:23;97195.81;;;21.92;100.00
61037;BME280;57313;47.040;15.498;2022-07-22T06:41:10;97186.69;;;22.03;100.00
61037;BME280;57313;47.040;15.498;2022-07-22T06:43:37;97199.94;;;22.11;100.00
61037;BME280;57313;47.040;15.498;2022-07-22T06:46:06;97186.50;;;22.21;100.00
61037;BME280;57313;47.040;15.498;2022-07-22T06:48:34;97190.47;;;22.33;100.00
61037;BME280;57313;47.040;15.498;2022-07-22T06:51:01;97186.16;;;22.40;100.00
61037;BME280;57313;47.040;15.498;2022-07-22T06:53:28;97194.53;;;22.52;100.00
61037;BME280;57313;47.040;15.498;2022-07-22T06:55:55;97194.00;;;22.65;100.00
61037;BME280;57313;47.040;15.498;2022-07-22T06:58:31;97191.50;;;22.72;100.00
61037;BME280;57313;47.040;15.498;2022-07-22T07:00:59;97185.78;;;22.83;100.00
61037;BME280;57313;47.040;15.498;2022-07-22T07:03:28;97182.75;;;22.94;96.65
61037;BME280;57313;47.040;15.498;2022-07-22T07:06:01;97194.78;;;23.05;98.47
61037;BME280;57313;47.040;15.498;2022-07-22T07:08:28;97196.25;;;23.16;97.77
61037;BME280;57313;47.040;15.498;2022-07-22T07:10:56;97194.56;;;23.23;94.84
61037;BME280;57313;47.040;15.498;2022-07-22T07:13:23;97194.41;;;23.25;95.09
61037;BME280;57313;47.040;15.498;2022-07-22T07:15:50;97192.69;;;23.32;89.30
61037;BME280;57313;47.040;15.498;2022-07-22T07:18:17;97200.94;;;23.37;86.62
61037;BME280;57313;47.040;15.498;2022-07-22T07:20:46;97193.97;;;23.36;88.71
61037;BME280;57313;47.040;15.498;2022-07-22T07:23:14;97197.41;;;23.45;88.40
61037;BME280;57313;47.040;15.498;2022-07-22T07:25:41;97196.03;;;23.49;83.98
61037;BME280;57313;47.040;15.498;2022-07-22T07:28:08;97192.31;;;23.58;83.13
61037;BME280;57313;47.040;15.498;2022-07-22T07:30:35;97182.97;;;23.62;83.69
61037;BME280;57313;47.040;15.498;2022-07-22T07:33:03;97198.81;;;23.79;83.93
61037;BME280;57313;47.040;15.498;2022-07-22T07:35:30;97191.72;;;23.94;82.35
61037;BME280;57313;47.040;15.498;2022-07-22T07:37:59;97193.13;;;24.05;83.10
61037;BME280;57313;47.040;15.498;2022-07-22T07:40:26;97191.19;;;24.14;80.71
61037;BME280;57313;47.040;15.498;2022-07-22T07:42:54;97180.19;;;24.17;80.53
61037;BME280;57313;47.040;15.498;2022-07-22T07:45:29;97186.06;;;24.27;81.38
61037;BME280;57313;47.040;15.498;2022-07-22T07:47:57;97187.16;;;24.33;77.40
61037;BME280;57313;47.040;15.498;2022-07-22T07:50:24;97188.28;;;24.38;77.44
61037;BME280;57313;47.040;15.498;2022-07-22T07:52:51;97181.22;;;24.46;77.85
61037;BME280;57313;47.040;15.498;2022-07-22T07:55:20;97189.28;;;24.52;77.88
61037;BME280;57313;47.040;15.498;2022-07-22T07:57:48;97191.03;;;24.60;81.08
61037;BME280;57313;47.040;15.498;2022-07-22T08:00:20;97191.13;;;24.67;77.25
61037;BME280;57313;47.040;15.498;2022-07-22T08:02:49;97189.19;;;24.76;75.77
61037;BME280;57313;47.040;15.498;2022-07-22T08:05:17;97181.47;;;24.81;79.86
61037;BME280;57313;47.040;15.498;2022-07-22T08:07:44;97185.50;;;24.91;78.13
61037;BME280;57313;47.040;15.498;2022-07-22T08:10:13;97187.41;;;24.98;74.44
61037;BME280;57313;47.040;15.498;2022-07-22T08:13:02;97177.19;;;25.01;74.97
61037;BME280;57313;47.040;15.498;2022-07-22T08:15:30;97188.94;;;25.07;74.93
61037;BME280;57313;47.040;15.498;2022-07-22T08:17:59;97178.63;;;25.19;76.16
61037;BME280;57313;47.040;15.498;2022-07-22T08:20:27;97189.00;;;25.29;74.27
61037;BME280;57313;47.040;15.498;2022-07-22T08:22:54;97189.63;;;25.31;72.76
61037;BME280;57313;47.040;15.498;2022-07-22T08:25:22;97189.53;;;25.39;69.80
61037;BME280;57313;47.040;15.498;2022-07-22T08:27:49;97188.56;;;25.47;70.51
61037;BME280;57313;47.040;15.498;2022-07-22T08:30:18;97197.00;;;25.50;70.19
61037;BME280;57313;47.040;15.498;2022-07-22T08:32:46;97188.06;;;25.58;73.75
61037;BME280;57313;47.040;15.498;2022-07-22T08:35:14;97202.25;;;25.65;71.10
61037;BME280;57313;47.040;15.498;2022-07-22T08:37:41;97191.22;;;25.68;71.17
61037;BME280;57313;47.040;15.498;2022-07-22T08:40:08;97188.41;;;25.76;68.98
61037;BME280;57313;47.040;15.498;2022-07-22T08:42:37;97191.56;;;25.87;70.55
61037;BME280;57313;47.040;15.498;2022-07-22T08:45:08;97189.28;;;25.84;69.56
61037;BME280;57313;47.040;15.498;2022-07-22T08:47:45;97185.25;;;25.94;71.35
61037;BME280;57313;47.040;15.498;2022-07-22T08:50:13;97184.13;;;26.04;68.00
61037;BME280;57313;47.040;15.498;2022-07-22T08:52:40;97182.78;;;26.14;76.44
61037;BME280;57313;47.040;15.498;2022-07-22T08:55:08;97185.53;;;26.28;71.44
61037;BME280;57313;47.040;15.498;2022-07-22T08:57:36;97183.72;;;26.35;68.97
61037;BME280;57313;47.040;15.498;2022-07-22T09:00:09;97174.69;;;26.36;72.90
61037;BME280;57313;47.040;15.498;2022-07-22T09:02:39;97174.47;;;26.31;68.80
61037;BME280;57313;47.040;15.498;2022-07-22T09:05:10;97181.28;;;26.33;66.94
61037;BME280;57313;47.040;15.498;2022-07-22T09:07:58;97184.38;;;26.37;69.56
61037;BME280;57313;47.040;15.498;2022-07-22T09:10:31;97180.31;;;26.48;66.83
61037;BME280;57313;47.040;15.498;2022-07-22T09:13:01;97183.00;;;26.55;62.85
61037;BME280;57313;47.040;15.498;2022-07-22T09:15:31;97177.50;;;26.63;62.45
61037;BME280;57313;47.040;15.498;2022-07-22T09:17:59;97181.47;;;26.67;63.72
61037;BME280;57313;47.040;15.498;2022-07-22T09:20:33;97183.34;;;26.73;66.90
61037;BME280;57313;47.040;15.498;2022-07-22T09:23:08;97184.81;;;26.82;63.74
61037;BME280;57313;47.040;15.498;2022-07-22T09:25:38;97177.06;;;26.94;64.72
61037;BME280;57313;47.040;15.498;2022-07-22T09:28:11;97175.41;;;27.00;64.71
61037;BME280;57313;47.040;15.498;2022-07-22T09:30:41;97177.47;;;27.04;59.14
61037;BME280;57313;47.040;15.498;2022-07-22T09:33:13;97176.06;;;27.09;62.84
61037;BME280;57313;47.040;15.498;2022-07-22T09:35:43;97171.75;;;27.14;60.03
61037;BME280;57313;47.040;15.498;2022-07-22T09:38:17;97166.63;;;27.19;62.16
61037;BME280;57313;47.040;15.498;2022-07-22T09:40:48;97172.41;;;27.30;61.77
61037;BME280;57313;47.040;15.498;2022-07-22T09:43:19;97173.06;;;27.32;56.87
61037;BME280;57313;47.040;15.498;2022-07-22T09:45:49;97164.00;;;27.33;62.01
61037;BME280;57313;47.040;15.498;2022-07-22T09:48:19;97164.84;;;27.40;60.96
61037;BME280;57313;47.040;15.498;2022-07-22T09:50:50;97165.47;;;27.49;60.06
61037;BME280;57313;47.040;15.498;2022-07-22T09:53:21;97158.69;;;27.60;60.58
61037;BME280;57313;47.040;15.498;2022-07-22T09:55:48;97163.66;;;27.63;57.11
61037;BME280;57313;47.040;15.498;2022-07-22T09:58:16;97153.56;;;27.65;59.04
61037;BME280;57313;47.040;15.498;2022-07-22T10:00:43;97156.22;;;27.71;57.68
61037;BME280;57313;47.040;15.498;2022-07-22T10:03:13;97150.28;;;27.83;58.47
61037;BME280;57313;47.040;15.498;2022-07-22T10:05:43;97149.44;;;27.96;59.08
61037;BME280;57313;47.040;15.498;2022-07-22T10:08:14;97143.06;;;27.97;58.83
61037;BME280;57313;47.040;15.498;2022-07-22T10:10:41;97149.41;;;28.09;58.55
61037;BME280;57313;47.040;15.498;2022-07-22T10:13:12;97132.72;;;28.14;54.33
61037;BME280;57313;47.040;15.498;2022-07-22T10:15:39;97148.81;;;28.20;55.61
61037;BME280;57313;47.040;15.498;2022-07-22T10:18:13;97142.59;;;28.20;55.40
61037;BME280;57313;47.040;15.498;2022-07-22T10:20:44;97134.16;;;28.23;57.14
61037;BME280;57313;47.040;15.498;2022-07-22T10:23:14;97134.97;;;28.30;56.48
61037;BME280;57313;47.040;15.498;2022-07-22T10:25:49;97142.78;;;28.32;52.39
61037;BME280;57313;47.040;15.498;2022-07-22T10:28:22;97148.75;;;28.34;53.06
61037;BME280;57313;47.040;15.498;2022-07-22T10:30:50;97132.06;;;28.38;54.45
61037;BME280;57313;47.040;15.498;2022-07-22T10:33:19;97131.19;;;28.51;52.68
61037;BME280;57313;47.040;15.498;2022-07-22T10:35:56;97137.13;;;28.67;55.34
61037;BME280;57313;47.040;15.498;2022-07-22T10:38:27;97133.38;;;28.74;53.10
61037;BME280;57313;47.040;15.498;2022-07-22T10:40:56;97129.63;;;28.82;52.50
61037;BME280;57313;47.040;15.498;2022-07-22T10:43:27;97126.94;;;28.89;50.15
61037;BME280;57313;47.040;15.498;2022-07-22T10:45:56;97128.97;;;28.93;50.31
61037;BME280;57313;47.040;15.498;2022-07-22T10:48:44;97111.25;;;28.92;51.01
61037;BME280;57313;47.040;15.498;2022-07-22T10:51:13;97115.56;;;28.93;51.22
61037;BME280;57313;47.040;15.498;2022-07-22T10:53:52;97115.53;;;29.00;50.99
61037;BME280;57313;47.040;15.498;2022-07-22T10:56:23;97125.81;;;29.03;51.46
61037;BME280;57313;47.040;15.498;2022-07-22T10:58:54;97109.13;;;29.01;49.95
61037;BME280;57313;47.040;15.498;2022-07-22T11:01:25;97113.41;;;29.09;49.11
61037;BME280;57313;47.040;15.498;2022-07-22T11:03:54;97110.25;;;29.18;49.22
61037;BME280;57313;47.040;15.498;2022-07-22T11:06:27;97107.13;;;29.28;52.36
61037;BME280;57313;47.040;15.498;2022-07-22T11:08:57;97112.22;;;29.36;54.43
61037;BME280;57313;47.040;15.498;2022-07-22T11:11:36;97113.16;;;29.49;53.04
61037;BME280;57313;47.040;15.498;2022-07-22T11:14:12;97106.31;;;29.53;51.54
61037;BME280;57313;47.040;15.498;2022-07-22T11:16:39;97097.88;;;29.49;50.08
61037;BME280;57313;47.040;15.498;2022-07-22T11:19:07;97101.31;;;29.57;50.37
61037;BME280;57313;47.040;15.498;2022-07-22T11:21:35;97087.53;;;29.53;48.62
61037;BME280;57313;47.040;15.498;2022-07-22T11:24:13;97095.94;;;29.57;47.99
61037;BME280;57313;47.040;15.498;2022-07-22T11:26:43;97101.88;;;29.65;46.75
61037;BME280;57313;47.040;15.498;2022-07-22T11:29:15;97092.94;;;29.71;46.30
61037;BME280;57313;47.040;15.498;2022-07-22T11:31:43;97085.78;;;29.65;46.64
61037;BME280;57313;47.040;15.498;2022-07-22T11:34:11;97080.25;;;29.60;44.95
61037;BME280;57313;47.040;15.498;2022-07-22T11:36:41;97083.69;;;29.67;45.79
61037;BME280;57313;47.040;15.498;2022-07-22T11:39:10;97093.31;;;29.75;42.35
61037;BME280;57313;47.040;15.498;2022-07-22T11:41:40;97085.03;;;29.83;45.35
61037;BME280;57313;47.040;15.498;2022-07-22T11:44:07;97079.00;;;29.88;47.36
61037;BME280;57313;47.040;15.498;2022-07-22T11:46:36;97072.88;;;29.99;48.81
61037;BME280;57313;47.040;15.498;2022-07-22T11:49:04;97069.09;;;30.07;46.49
61037;BME280;57313;47.040;15.498;2022-07-22T11:51:34;97074.16;;;30.15;46.42
61037;BME280;57313;47.040;15.498;2022-07-22T11:54:03;97061.16;;;30.12;43.50
61037;BME280;57313;47.040;15.498;2022-07-22T11:56:32;97059.00;;;30.21;43.18
61037;BME280;57313;47.040;15.498;2022-07-22T11:59:01;97071.91;;;30.31;45.10
61037;BME280;57313;47.040;15.498;2022-07-22T12:01:29;97064.44;;;30.33;47.16
61037;BME280;57313;47.040;15.498;2022-07-22T12:03:58;97057.28;;;30.45;45.17
61037;BME280;57313;47.040;15.498;2022-07-22T12:06:27;97056.16;;;30.53;46.87
61037;BME280;57313;47.040;15.498;2022-07-22T12:09:01;97049.75;;;30.54;45.15
61037;BME280;57313;47.040;15.498;2022-07-22T12:11:30;97055.84;;;30.61;44.22
61037;BME280;57313;47.040;15.498;2022-07-22T12:14:06;97051.00;;;30.51;44.93
61037;BME280;57313;47.040;15.498;2022-07-22T12:16:42;97044.94;;;30.56;43.62
61037;BME280;57313;47.040;15.498;2022-07-22T12:19:12;97033.28;;;30.62;42.93
61037;BME280;57313;47.040;15.498;2022-07-22T12:21:52;97038.94;;;30.72;44.00
61037;BME280;57313;47.040;15.498;2022-07-22T12:24:27;97032.09;;;30.76;42.74
61037;BME280;57313;47.040;15.498;2022-07-22T12:26:55;97027.28;;;30.78;45.48
61037;BME280;57313;47.040;15.498;2022-07-22T12:29:26;97023.88;;;30.71;44.34
61037;BME280;57313;47.040;15.498;2022-07-22T12:31:56;97029.16;;;30.78;43.68
61037;BME280;57313;47.040;15.498;2022-07-22T12:34:31;97024.72;;;30.84;44.79
61037;BME280;57313;47.040;15.498;2022-07-22T12:37:00;97017.22;;;30.86;44.07
61037;BME280;57313;47.040;15.498;2022-07-22T12:39:27;97022.69;;;30.98;44.74
61037;BME280;57313;47.040;15.498;2022-07-22T12:41:55;97019.00;;;30.92;41.66
61037;BME280;57313;47.040;15.498;2022-07-22T12:44:23;97015.63;;;30.96;43.28
61037;BME280;57313;47.040;15.498;2022-07-22T12:46:56;97005.63;;;31.04;42.31
61037;BME280;57313;47.040;15.498;2022-07-22T12:49:25;97002.25;;;31.08;44.17
61037;BME280;57313;47.040;15.498;2022-07-22T12:52:10;96998.06;;;31.12;43.78
61037;BME280;57313;47.040;15.498;2022-07-22T12:54:39;97006.47;;;31.16;42.77